Flight Track Log - Related Links

Times and Time Zones

All times are in EDT time to prevent confusion due to time zone crossing. See the N8147X flight status page for this flight to view local times or setup timezone preferences in your user account.

Time Position Orientation Groundspeed Altitude Reporting Facility
EDT Latitude Longitude Course Direction KTS MPH feet Rate Location/Type
Sun 11:22:44 AM 42.2142 -83.7597 180° South 54 62 1,400  Level Cleveland Center
Sun 11:23:39 AM 42.2053 -83.7789 238° Southwest 66 76 2,000 724 Climbing Cleveland Center
Sun 11:24:40 AM 42.1825 -83.7694 163° South 84 97 2,800 744 Climbing Cleveland Center
Sun 11:25:40 AM 42.1600 -83.7569 158° South 87 100 3,500 595 Climbing Cleveland Center
Sun 11:26:41 AM 42.1417 -83.7450 154° Southeast 84 97 4,000 344 Climbing Cleveland Center
Sun 11:27:42 AM 42.1083 -83.7347 167° South 110 127 4,200 49 Climbing Cleveland Center
Sun 11:28:00 AM 41.9993 -83.7000 180° South  Level FlightAware Approximate
Sun 11:28:43 AM 42.0794 -83.7306 174° South 113 130 4,100  Level Cleveland Center
Sun 11:30:00 AM 42.0329 -83.7110 166° South  Level FlightAware Approximate
Sun 11:37:00 AM 41.7792 -83.6766 175° South  Level FlightAware Approximate
Sun 11:38:00 AM 41.7427 -83.6720 175° South  Level FlightAware Approximate
Sun 11:39:00 AM 41.7063 -83.6674 175° South  Level FlightAware Approximate
Sun 11:40:00 AM 41.6699 -83.6626 174° South  Level FlightAware Approximate
Sun 11:41:00 AM 41.6335 -83.6578 174° South  Level FlightAware Approximate
Sun 11:42:00 AM 41.5971 -83.6529 174° South  Level FlightAware Approximate
Sun 11:43:00 AM 41.5607 -83.6481 174° South  Level FlightAware Approximate
Sun 11:44:00 AM 41.5243 -83.6432 174° South  Level FlightAware Approximate
Sun 11:44:57 AM 41.6350 -83.6644 93° East 118 136 8,000  Level Cleveland Center
Sun 11:45:00 AM 41.4879 -83.6384 174° South  Level FlightAware Approximate
Sun 11:45:57 AM 41.6103 -83.6522 160° South 100 115 8,600  Level Cleveland Center
Sun 11:46:00 AM 41.4515 -83.6335 174° South  Level FlightAware Approximate
Sun 11:46:56 AM 41.6094 -83.6103 92° East 122 140 9,000  Level Cleveland Center
Sun 11:47:00 AM 41.4481 -83.5865 93° East  Level FlightAware Approximate
Sun 11:47:57 AM 41.6019 -83.5683 103° East 122 140 9,400  Level Cleveland Center
Sun 11:48:00 AM 41.4461 -83.5378 93° East  Level FlightAware Approximate
Sun 11:48:57 AM 41.5928 -83.5236 105° East 122 140 9,800  Level Cleveland Center
Sun 11:49:00 AM 41.4441 -83.4890 93° East  Level FlightAware Approximate
Sun 11:49:56 AM 41.5858 -83.4761 101° East 122 140 10,000  Level Cleveland Center
Sun 11:50:00 AM 41.4421 -83.4403 93° East  Level FlightAware Approximate
Sun 11:50:57 AM 41.5767 -83.4228 103° East 128 147 10,000  Level Cleveland Center
Sun 11:51:57 AM 41.5633 -83.3667 108° East 139 160 10,000 -50 Level Cleveland Center
Sun 11:52:56 AM 41.5542 -83.3108 102° East 145 167 9,900 -50 Descending Cleveland Center
Sun 11:53:57 AM 41.5453 -83.2578 103° East 150 173 9,900  Level Cleveland Center
Sun 11:54:57 AM 41.5358 -83.2047 103° East 145 167 9,900  Level Cleveland Center
Sun 11:55:57 AM 41.5267 -83.1489 102° East 150 173 9,900  Level Cleveland Center
Sun 11:56:57 AM 41.5175 -83.1014 104° East 150 173 9,900  Level Cleveland Center
Sun 11:57:57 AM 41.5061 -83.0453 105° East 150 173 9,900 -50 Level Cleveland Center
Sun 11:58:57 AM 41.4969 -82.9894 102° East 150 173 9,800 -50 Descending Cleveland Center
Sun 11:59:57 AM 41.4875 -82.9367 103° East 150 173 9,800  Level Cleveland Center
Sun 12:00:57 PM 41.4783 -82.8836 103° East 150 173 9,800 200 Level Cleveland Center
Sun 12:01:57 PM 41.4667 -82.8333 107° East 150 173 10,200 403 Climbing Cleveland Center
Sun 12:02:56 PM 41.4592 -82.7942 104° East 125 144 10,600 350 Climbing Cleveland Center
Sun 12:03:40 PM 41.4514 -82.7606 107° East 119 137 10,800 154 Climbing Cleveland Center
Sun 12:04:53 PM 41.4422 -82.6967 101° East 150 173 10,900 45 Climbing Cleveland Center
Sun 12:05:54 PM 41.4347 -82.6439 101° East 166 191 10,900 -49 Level Cleveland Center
Sun 12:06:55 PM 41.4381 -82.5831 86° East 161 185 10,800 -50 Descending Cleveland Center
Sun 12:07:55 PM 41.4411 -82.5250 86° East 160 184 10,800  Level Cleveland Center
Sun 12:08:56 PM 41.4461 -82.4669 83° East 154 177 10,800 49 Level Cleveland Center
Sun 12:09:57 PM 41.4472 -82.4114 88° East 152 175 10,900  Climbing Cleveland Center
Sun 12:10:57 PM 41.4522 -82.3506 84° East 156 180 10,800 -50 Descending Cleveland Center
Sun 12:11:57 PM 41.4553 -82.2953 86° East 156 180 10,800  Level Cleveland Center
Sun 12:12:59 PM 41.4603 -82.2372 83° East 152 175 10,800  Level Cleveland Center
Sun 12:14:00 PM 41.4611 -82.1819 89° East 150 173 10,800  Level Cleveland Center
Sun 12:15:01 PM 41.4658 -82.1239 84° East 152 175 10,800  Level Cleveland Center
Sun 12:16:02 PM 41.4689 -82.0683 86° East 153 176 10,800  Level Cleveland Center
Sun 12:17:02 PM 41.4717 -82.0131 86° East 151 174 10,800  Level Cleveland Center
Sun 12:18:03 PM 41.4744 -81.9550 86° East 152 175 10,800  Level Cleveland Center
Sun 12:19:04 PM 41.4792 -81.8997 83° East 152 175 10,800  Level Cleveland Center
Sun 12:20:04 PM 41.4797 -81.8414 89° East 153 176 10,800  Level Cleveland Center
Sun 12:21:11 PM 41.4847 -81.7778 84° East 152 175 10,800  Level Cleveland Center
Sun 12:21:45 PM 41.4831 -81.7417 94° East 152 175 10,800  Level Cleveland Center
Sun 12:22:45 PM 41.4897 -81.6892 80° East 152 175 10,800  Level Cleveland Center
Sun 12:23:45 PM 41.4925 -81.6311 86° East 147 169 10,800  Level Cleveland Center
Sun 12:24:45 PM 41.4950 -81.5811 86° East 147 169 10,800  Level Cleveland Center
Sun 12:25:45 PM 41.4975 -81.5286 86° East 162 186 10,800  Level Cleveland Center
Sun 12:26:45 PM 41.5000 -81.4758 86° East 157 181 10,800 -50 Level Cleveland Center
Sun 12:27:45 PM 41.5044 -81.4178 84° East 157 181 10,700 -50 Descending Cleveland Center
Sun 12:28:45 PM 41.5069 -81.3650 86° East 152 175 10,700 50 Level Cleveland Center
Sun 12:29:45 PM 41.5094 -81.3069 87° East 152 175 10,800 50 Climbing Cleveland Center
Sun 12:30:45 PM 41.5119 -81.2542 86° East 147 169 10,800  Level Cleveland Center
Sun 12:31:45 PM 41.5144 -81.1931 87° East 142 163 10,800 50 Level Cleveland Center
Sun 12:32:45 PM 41.5167 -81.1378 87° East 142 163 10,900 50 Climbing Cleveland Center
Sun 12:33:45 PM 41.5233 -81.0797 81° East 142 163 10,900 -50 Level Cleveland Center
Sun 12:34:45 PM 41.5192 -81.0269 96° East 142 163 10,800 -50 Descending Cleveland Center
Sun 12:35:45 PM 41.5175 -80.9686 92° East 142 163 10,800  Level Cleveland Center
Sun 12:36:45 PM 41.5175 -80.9131 90° East 142 163 10,800 50 Level Cleveland Center
Sun 12:37:45 PM 41.5197 -80.8578 87° East 142 163 10,900 50 Climbing Cleveland Center
Sun 12:38:45 PM 41.5200 -80.8022 90° East 142 163 10,900  Level Cleveland Center
Sun 12:39:45 PM 41.5222 -80.7439 87° East 142 163 10,900 -50 Level Cleveland Center
Sun 12:40:45 PM 41.5222 -80.6858 90° East 142 163 10,800 -50 Descending Cleveland Center
Sun 12:41:45 PM 41.5222 -80.6331 90° East 142 163 10,800 -50 Level Cleveland Center
Sun 12:42:45 PM 41.5222 -80.5831 90° East 142 163 10,700  Descending Cleveland Center
Sun 12:43:45 PM 41.5242 -80.5278 87° East 142 163 10,800 100 Climbing Cleveland Center
Sun 12:44:45 PM 41.5222 -80.4750 93° East 137 158 10,900 50 Climbing Cleveland Center
Sun 12:45:45 PM 41.5242 -80.4194 87° East 143 165 10,900  Level Cleveland Center
Sun 12:46:45 PM 41.5242 -80.3642 90° East 143 165 10,900 -50 Level Cleveland Center
Sun 12:47:45 PM 41.5239 -80.3086 90° East 143 165 10,800  Descending Cleveland Center
Sun 12:48:45 PM 41.5258 -80.2558 87° East 143 165 10,900 50 Climbing Cleveland Center
Sun 12:49:45 PM 41.5258 -80.1975 90° East 143 165 10,900  Level Cleveland Center
Sun 12:50:45 PM 41.5256 -80.1450 90° East 143 165 10,900  Level Cleveland Center
Sun 12:51:45 PM 41.5253 -80.0922 90° East 143 165 10,900  Level Cleveland Center
Sun 12:52:45 PM 41.5272 -80.0367 87° East 143 165 10,900 -50 Level Cleveland Center
Sun 12:53:45 PM 41.5269 -79.9814 90° East 143 165 10,800  Descending Cleveland Center
Sun 12:54:45 PM 41.5267 -79.9258 90° East 143 165 10,900  Climbing Cleveland Center
Sun 12:55:45 PM 41.5242 -79.8731 94° East 143 165 10,800 -50 Descending Cleveland Center
Sun 12:56:45 PM 41.5258 -79.8206 88° East 143 165 10,800 50 Level Cleveland Center
Sun 12:57:45 PM 41.5256 -79.7678 90° East 143 165 10,900 100 Climbing Cleveland Center
Sun 12:58:45 PM 41.5253 -79.7150 90° East 143 165 11,000 -50 Climbing Cleveland Center
Sun 12:59:45 PM 41.5247 -79.6594 91° East 143 165 10,800 -100 Descending Cleveland Center
Sun 01:00:45 PM 41.5244 -79.6042 90° East 143 165 10,800  Level Cleveland Center
Sun 01:01:45 PM 41.5258 -79.5514 88° East 143 165 10,800  Level Cleveland Center
Sun 01:02:45 PM 41.5256 -79.4986 90° East 143 165 10,800  Level Cleveland Center
Sun 01:03:45 PM 41.5250 -79.4433 91° East 143 165 10,800  Level Cleveland Center
Sun 01:04:45 PM 41.5244 -79.3906 91° East 143 165 10,800 50 Level Cleveland Center
Sun 01:05:45 PM 41.5258 -79.3350 88° East 143 165 10,900  Climbing Cleveland Center
Sun 01:06:45 PM 41.5253 -79.2825 91° East 143 165 10,800 -50 Descending Cleveland Center
Sun 01:07:45 PM 41.5247 -79.2269 91° East 143 165 10,800 50 Level Cleveland Center
Sun 01:08:45 PM 41.5239 -79.1742 91° East 143 165 10,900 50 Climbing Cleveland Center
Sun 01:09:45 PM 41.5233 -79.1189 91° East 143 165 10,900  Level Cleveland Center
Sun 01:10:45 PM 41.5247 -79.0633 88° East 143 165 10,900 50 Level Cleveland Center
Sun 01:11:45 PM 41.5239 -79.0078 91° East 143 165 11,000 -50 Climbing Cleveland Center
Sun 01:12:45 PM 41.5231 -78.9522 91° East 143 165 10,800 -50 Descending Cleveland Center
Sun 01:13:45 PM 41.5244 -78.8969 88° East 143 165 10,900 50 Climbing Cleveland Center
Sun 01:14:45 PM 41.5217 -78.8414 94° East 143 165 10,900 -50 Level Cleveland Center
Sun 01:15:45 PM 41.5228 -78.7886 88° East 143 165 10,800 -100 Descending Cleveland Center
Sun 01:16:45 PM 41.5219 -78.7333 91° East 143 165 10,700  Descending Cleveland Center
Sun 01:17:45 PM 41.5211 -78.6806 91° East 143 165 10,800 50 Climbing Cleveland Center
Sun 01:18:45 PM 41.5200 -78.6225 91° East 143 165 10,800 50 Level Cleveland Center
Sun 01:19:45 PM 41.5192 -78.5697 91° East 143 165 10,900 50 Climbing Cleveland Center
Sun 01:20:45 PM 41.5183 -78.5197 91° East 143 165 10,900  Level Cleveland Center
Sun 01:21:45 PM 41.5194 -78.4672 88° East 143 165 10,900 50 Level Cleveland Center
Sun 01:22:45 PM 41.5183 -78.4117 92° East 143 165 11,000 50 Climbing Cleveland Center
Sun 01:23:45 PM 41.5172 -78.3589 92° East 143 165 11,000  Level Cleveland Center
Sun 01:24:45 PM 41.5183 -78.3064 88° East 143 165 11,000 46 Level Cleveland Center
Sun 01:25:55 PM 41.5194 -78.2439 89° East 147 169 11,100  Climbing New York Center
Sun 01:26:56 PM 41.5247 -78.1947 82° East 140 161 11,000 -50 Descending New York Center
Sun 01:27:56 PM 41.5219 -78.1389 94° East 140 161 11,000  Level New York Center
Sun 01:28:56 PM 41.5164 -78.0939 99° East 140 161 11,000 -50 Level New York Center
Sun 01:29:55 PM 41.5133 -78.0411 94° East 140 161 10,900 -50 Descending New York Center
Sun 01:30:55 PM 41.5125 -77.9883 91° East 140 161 10,900 50 Level New York Center
Sun 01:31:55 PM 41.5133 -77.9383 89° East 140 161 11,000 50 Climbing New York Center
Sun 01:32:56 PM 41.5125 -77.8856 91° East 140 161 11,000  Level New York Center
Sun 01:33:54 PM 41.5114 -77.8328 92° East 140 161 11,000 -50 Level New York Center
Sun 01:34:55 PM 41.5125 -77.7803 88° East 140 161 10,900 -50 Descending New York Center
Sun 01:35:55 PM 41.5117 -77.7219 91° East 140 161 10,900  Level New York Center
Sun 01:36:56 PM 41.5103 -77.6719 92° East 140 161 10,900 50 Level New York Center
Sun 01:37:56 PM 41.5111 -77.6222 89° East 140 161 11,000 102 Climbing New York Center
Sun 01:38:54 PM 41.5122 -77.5697 88° East 140 161 11,100  Climbing New York Center
Sun 01:39:55 PM 41.5108 -77.5197 92° East 140 161 11,000 -50 Descending New York Center
Sun 01:40:55 PM 41.5097 -77.4642 92° East 140 161 11,000 -49 Level New York Center
Sun 01:41:57 PM 41.5106 -77.4117 89° East 140 161 10,900 -50 Descending New York Center
Sun 01:42:54 PM 41.5092 -77.3617 92° East 140 161 10,900  Level New York Center
Sun 01:43:56 PM 41.5078 -77.3114 92° East 140 161 10,900 -49 Level New York Center
Sun 01:44:56 PM 41.5067 -77.2589 92° East 140 161 10,800  Descending New York Center
Sun 01:45:54 PM 41.5072 -77.2089 89° East 140 161 10,900 101 Climbing New York Center
Sun 01:46:55 PM 41.5058 -77.1561 92° East 140 161 11,000 50 Climbing New York Center
Sun 01:47:55 PM 41.5064 -77.1064 89° East 140 161 11,000 50 Level New York Center
Sun 01:48:55 PM 41.5053 -77.0508 92° East 140 161 11,100  Climbing New York Center
Sun 01:49:55 PM 41.5039 -77.0008 92° East 140 161 11,000 -50 Descending New York Center
Sun 01:50:55 PM 41.5044 -76.9483 89° East 140 161 11,000  Level New York Center
Sun 01:51:56 PM 41.5031 -76.8956 92° East 140 161 11,000 50 Level New York Center
Sun 01:52:55 PM 41.5036 -76.8428 89° East 140 161 11,100  Climbing New York Center
Sun 01:53:57 PM 41.5022 -76.7900 92° East 140 161 11,000 -50 Descending New York Center
Sun 01:54:55 PM 41.5006 -76.7372 92° East 140 161 11,000  Level New York Center
Sun 01:55:56 PM 41.4992 -76.6819 92° East 140 161 11,000 -50 Level New York Center
Sun 01:56:54 PM 41.4981 -76.6236 91° East 140 161 10,900  Descending New York Center
Sun 01:57:54 PM 41.4986 -76.5681 89° East 140 161 11,000 50 Climbing New York Center
Sun 01:58:55 PM 41.4969 -76.5153 92° East 140 161 11,000  Level New York Center
Sun 01:59:55 PM 41.4972 -76.4683 90° East 140 161 11,000 -50 Level New York Center
Sun 02:00:56 PM 41.4958 -76.4100 92° East 145 167 10,900 -49 Descending New York Center
Sun 02:01:57 PM 41.4942 -76.3572 92° East 139 160 10,900  Level New York Center
Sun 02:02:54 PM 41.4925 -76.3044 92° East 139 160 10,900 50 Level New York Center
Sun 02:03:56 PM 41.4925 -76.2575 90° East 139 160 11,000  Climbing New York Center
Sun 02:04:56 PM 41.4928 -76.2047 90° East 139 160 10,900 -51 Descending New York Center
Sun 02:05:54 PM 41.4914 -76.1467 92° East 145 167 10,900  Level New York Center
Sun 02:06:55 PM 41.4894 -76.0939 93° East 145 167 10,900  Level New York Center
Sun 02:07:55 PM 41.4897 -76.0411 90° East 145 167 10,900 49 Level New York Center
Sun 02:08:57 PM 41.4878 -75.9911 93° East 145 167 11,000 50 Climbing New York Center
Sun 02:09:54 PM 41.4864 -75.9328 92° East 145 167 11,000  Level New York Center
Sun 02:10:55 PM 41.4844 -75.8800 93° East 145 167 11,000  Level New York Center
Sun 02:11:56 PM 41.4844 -75.8275 90° East 145 167 11,000  Level New York Center
Sun 02:12:56 PM 41.4828 -75.7719 92° East 145 167 11,000  Level New York Center
Sun 02:13:54 PM 41.4828 -75.7194 90° East 145 167 11,000  Level New York Center
Sun 02:14:55 PM 41.4808 -75.6694 93° East 140 161 11,000  Level New York Center
Sun 02:15:55 PM 41.4808 -75.6194 90° East 140 161 11,000 50 Level New York Center
Sun 02:16:56 PM 41.4786 -75.5669 93° East 140 161 11,100  Climbing New York Center
Sun 02:17:57 PM 41.4769 -75.5114 92° East 140 161 11,000 -51 Descending New York Center
Sun 02:18:54 PM 41.4811 -75.4561 84° East 140 161 11,000 62 Level New York Center
Sun 02:21:12 PM 41.5003 -75.3394 78° East 149 171 11,200 61 Climbing Boston Center
Sun 02:22:12 PM 41.5100 -75.2872 76° East 143 165 11,200  Level Boston Center
Sun 02:23:10 PM 41.5175 -75.2378 79° East 143 165 11,200 -51 Level Boston Center
Sun 02:24:10 PM 41.5272 -75.1825 77° East 143 165 11,100 -99 Descending Boston Center
Sun 02:25:11 PM 41.5347 -75.1275 80° East 143 165 11,000 -49 Descending Boston Center
Sun 02:26:12 PM 41.5442 -75.0781 76° East 143 165 11,000 50 Level Boston Center
Sun 02:27:10 PM 41.5539 -75.0172 78° East 143 165 11,100 50 Climbing Boston Center
Sun 02:28:11 PM 41.5614 -74.9703 78° East 143 165 11,100 49 Level Boston Center
Sun 02:29:12 PM 41.5711 -74.9097 78° East 143 165 11,200 50 Climbing Boston Center
Sun 02:30:10 PM 41.5783 -74.8628 78° East 143 165 11,200  Level Boston Center
Sun 02:31:10 PM 41.5858 -74.8019 81° East 143 165 11,200 -50 Level Boston Center
Sun 02:32:10 PM 41.5950 -74.7581 74° East 143 165 11,100 -150 Descending Boston Center
Sun 02:33:10 PM 41.6025 -74.6972 81° East 143 165 10,900 -347 Descending Boston Center
Sun 02:34:11 PM 41.6203 -74.6478 64° Northeast 149 171 10,400 -639 Descending Boston Center
Sun 02:35:12 PM 41.6400 -74.5875 66° East 149 171 9,600 -756 Descending Boston Center
Sun 02:36:10 PM 41.6619 -74.5408 58° Northeast 154 177 8,900 -712 Descending Boston Center
Sun 02:37:10 PM 41.6650 -74.4797 86° East 148 170 8,200 -496 Descending Boston Center
Sun 02:38:11 PM 41.6658 -74.4297 89° East 143 165 7,900 -347 Descending Boston Center
Sun 02:39:11 PM 41.6667 -74.3825 89° East 133 153 7,500 -347 Descending Boston Center
Sun 02:40:12 PM 41.6656 -74.3353 92° East 128 147 7,200 -151 Descending Boston Center
Sun 02:41:10 PM 41.6683 -74.2881 85° East 122 140 7,200 -102 Level Boston Center
Sun 02:42:10 PM 41.6628 -74.2436 99° East 122 140 7,000 -50 Descending Boston Center
Sun 02:43:11 PM 41.6594 -74.2017 96° East 116 133 7,100 50 Climbing Boston Center
Sun 02:44:11 PM 41.6517 -74.1517 102° East 126 145 7,100  Level Boston Center
Sun 02:45:12 PM 41.6461 -74.1097 100° East 126 145 7,100 -105 Level Boston Center
Sun 02:47:02 PM 41.6167 -74.0333 117° Southeast 120 138 6,800 -211 Descending New York TRACON
Sun 02:48:03 PM 41.5833 -74.0000 143° Southeast 123 142 6,500 -397 Descending New York TRACON
Sun 02:49:03 PM 41.5667 -73.9833 143° Southeast 120 138 6,000 -300 Descending New York TRACON
Sun 02:50:03 PM 41.5500 -73.9500 124° Southeast 111 128 5,900 50 Descending New York TRACON
Sun 02:51:03 PM 41.5333 -73.9167 124° Southeast 107 123 6,100 -101 Climbing New York TRACON
Sun 02:52:02 PM 41.5000 -73.8833 143° Southeast 121 139 5,700 -474 Descending New York TRACON
Sun 02:52:57 PM 41.4833 -73.8500 124° Southeast 131 151 5,200 -500 Descending New York TRACON
Sun 02:54:02 PM 41.4833 -73.8000 90° East 122 140 4,700 -576 Descending New York TRACON
Sun 02:55:02 PM 41.4667 -73.7500 114° Southeast 122 140 4,000 -730 Descending New York TRACON
Sun 02:55:57 PM 41.4500 -73.7167 124° Southeast 119 137 3,300 -500 Descending New York TRACON
Sun 02:57:02 PM 41.4333 -73.6833 124° Southeast 102 117 3,000 -150 Descending New York TRACON
Sun 02:57:57 PM 41.4333 -73.6500 90° East 101 116 3,000 52 Level New York TRACON
Sun 02:58:57 PM 41.4167 -73.6167 124° Southeast 101 116 3,100 -200 Climbing New York TRACON
Sun 02:59:57 PM 41.4000 -73.5833 124° Southeast 108 124 2,600 -450 Descending New York TRACON
Sun 03:00:57 PM 41.4167 -73.5500 56° Northeast 108 124 2,200 -350 Descending New York TRACON
Sun 03:01:57 PM 41.4333 -73.5167 56° Northeast 114 131 1,900 -250 Descending New York TRACON
Sun 03:02:57 PM 41.4167 -73.5000 143° Southeast 60 69 1,700 -238 Descending New York TRACON
Sun 03:04:03 PM 41.4000 -73.5000 180° South 60 69 1,400 -273 Descending New York TRACON
Sun 03:06:00 PM 41.3715 -73.4822 159° South  Level Estimated
Sun 03:13:00 PM 41.3715 -73.4822 37° Northeast  Level Estimated
Sun 03:14:00 PM 41.3715 -73.4822 37° Northeast  Level Estimated
Sun 03:15:00 PM 41.3715 -73.4822 37° Northeast  Level Estimated

Login

Don't have an account? Register now (free) for customized features, flight alerts, and more!